Time;durP1;ratioP1;P1;durP2;ratioP2;P2;SDS_P1;SDS_P2;PMS_P1;PMS_P2;Temp;Humidity;BMP_temperature;BMP_pressure;BME280_temperature;BME280_humidity;BME280_pressure;Samples;Min_cycle;Max_cycle;Signal;HPM_P1;HPM_P2
2022/07/24 00:00:08;;;;;;;1.88;1.60;;;;;;;12.01;90.04;101874.41;4954153;28;20190;-44
2022/07/24 00:02:40;;;;;;;3.63;2.00;;;;;;;12.00;90.71;101870.81;4953851;29;20508;-46
2022/07/24 00:05:06;;;;;;;3.22;1.90;;;;;;;11.80;91.27;101878.50;4953724;29;20175;-43
2022/07/24 00:07:31;;;;;;;6.50;2.15;;;;;;;11.40;92.39;101868.81;4953948;29;20254;-44
2022/07/24 00:09:57;;;;;;;4.80;2.25;;;;;;;11.38;94.34;101866.16;4953537;28;20582;-41
2022/07/24 00:12:23;;;;;;;2.15;1.95;;;;;;;11.57;94.78;101865.66;4954191;29;20181;-44
2022/07/24 00:14:48;;;;;;;3.17;1.92;;;;;;;11.62;94.44;101855.72;4953631;29;20202;-43
2022/07/24 00:17:14;;;;;;;1.88;1.63;;;;;;;11.73;93.37;101853.63;4953641;29;20601;-44
2022/07/24 00:19:39;;;;;;;2.45;1.80;;;;;;;11.67;92.85;101849.28;4954088;28;20694;-41
2022/07/24 00:22:05;;;;;;;3.47;2.33;;;;;;;11.54;92.54;101848.75;4953455;29;20735;-44
2022/07/24 00:24:30;;;;;;;4.32;1.88;;;;;;;11.45;93.21;101854.34;4953787;29;20222;-43
2022/07/24 00:26:56;;;;;;;2.85;2.00;;;;;;;11.47;93.70;101857.00;4953608;29;20175;-42
2022/07/24 00:29:21;;;;;;;3.05;2.00;;;;;;;11.48;93.54;101848.91;4934808;28;20298;-45
2022/07/24 00:31:47;;;;;;;4.00;1.88;;;;;;;11.31;93.20;101856.50;4952886;28;20241;-43
2022/07/24 00:34:12;;;;;;;3.08;2.33;;;;;;;11.08;93.63;101852.56;4953174;29;20171;-43
2022/07/24 00:36:38;;;;;;;2.22;2.03;;;;;;;11.16;94.84;101846.16;4952945;29;20183;-46
2022/07/24 00:39:03;;;;;;;3.03;2.10;;;;;;;11.12;94.88;101856.94;4953385;29;20151;-45
2022/07/24 00:41:29;;;;;;;3.50;2.50;;;;;;;10.97;95.53;101857.28;4952969;29;20199;-45
2022/07/24 00:44:14;;;;;;;2.10;1.90;;;;;;;11.16;95.67;101852.38;4953200;29;20183;-43
2022/07/24 00:46:41;;;;;;;2.70;2.00;;;;;;;11.09;95.38;101850.78;4953092;29;20206;-44
2022/07/24 00:49:10;;;;;;;3.65;2.38;;;;;;;10.86;95.27;101843.25;4953218;28;20195;-45
2022/07/24 00:51:36;;;;;;;2.50;2.30;;;;;;;10.74;95.66;101846.25;4935792;29;20234;-46
2022/07/24 00:54:07;;;;;;;3.55;2.50;;;;;;;10.57;96.56;101860.88;4953129;29;20567;-43
2022/07/24 00:56:33;;;;;;;2.90;2.30;;;;;;;10.54;97.61;101849.34;4953078;29;20245;-44
2022/07/24 00:59:00;;;;;;;4.68;2.40;;;;;;;10.60;98.17;101842.03;4953092;29;20190;-44
2022/07/24 01:01:26;;;;;;;2.97;2.60;;;;;;;10.45;98.69;101845.97;4952962;28;20225;-45
2022/07/24 01:03:52;;;;;;;3.00;2.75;;;;;;;10.55;99.61;101843.06;4953139;29;20170;-45
2022/07/24 01:06:19;;;;;;;3.67;2.70;;;;;;;10.63;99.77;101849.16;4952758;29;20215;-44
2022/07/24 01:08:45;;;;;;;6.07;2.70;;;;;;;10.64;99.77;101854.47;4953322;29;20231;-44
2022/07/24 01:11:12;;;;;;;3.05;2.40;;;;;;;10.57;99.53;101844.81;4952502;28;20278;-44
2022/07/24 01:13:39;;;;;;;4.93;2.92;;;;;;;10.43;99.64;101845.09;4952491;29;20171;-43
2022/07/24 01:16:06;;;;;;;2.90;2.60;;;;;;;10.55;99.96;101853.78;4952853;29;20212;-45
2022/07/24 01:18:32;;;;;;;2.70;2.50;;;;;;;10.70;99.56;101848.09;4952722;29;20186;-44
2022/07/24 01:20:57;;;;;;;3.58;3.28;;;;;;;10.48;98.93;101851.25;4952663;28;20567;-46
2022/07/24 01:23:23;;;;;;;3.40;3.08;;;;;;;10.47;98.83;101853.94;4952504;29;20555;-44
2022/07/24 01:25:49;;;;;;;2.58;2.38;;;;;;;10.43;98.60;101860.28;4952409;29;20191;-44
2022/07/24 01:28:14;;;;;;;3.83;2.58;;;;;;;10.38;98.55;101856.81;4952774;29;20581;-42
2022/07/24 01:30:41;;;;;;;3.13;2.83;;;;;;;10.38;98.83;101859.50;4935366;29;20239;-44
2022/07/24 01:33:06;;;;;;;2.85;2.65;;;;;;;10.41;99.02;101860.34;4950668;28;20687;-42
2022/07/24 01:35:32;;;;;;;3.83;2.70;;;;;;;10.45;99.20;101855.78;4952079;29;20230;-46
2022/07/24 01:37:58;;;;;;;4.00;2.50;;;;;;;10.44;99.21;101860.25;4952449;29;20549;-46
2022/07/24 01:40:23;;;;;;;3.83;2.92;;;;;;;10.56;99.33;101858.22;4952482;28;20265;-43
2022/07/24 01:42:50;;;;;;;3.50;3.08;;;;;;;10.47;99.03;101857.53;4951240;28;20209;-43
2022/07/24 01:45:15;;;;;;;2.92;2.63;;;;;;;10.37;98.70;101855.06;4956883;28;20622;-45
2022/07/24 01:47:43;;;;;;;2.83;2.63;;;;;;;10.42;98.88;101850.50;4971148;28;20342;-43
2022/07/24 01:50:12;;;;;;;4.38;2.90;;;;;;;10.47;99.17;101843.22;4971591;28;20214;-46
2022/07/24 01:52:38;;;;;;;3.28;2.97;;;;;;;10.46;98.79;101849.50;4970527;28;20174;-46
2022/07/24 01:55:05;;;;;;;5.22;3.00;;;;;;;10.43;98.54;101857.59;4971538;28;20690;-44
2022/07/24 01:57:31;;;;;;;3.58;3.20;;;;;;;10.29;98.25;101852.53;4971417;28;20233;-42
2022/07/24 01:59:58;;;;;;;5.32;3.10;;;;;;;10.38;98.69;101859.50;4971237;28;20611;-45
2022/07/24 02:02:23;;;;;;;3.30;3.00;;;;;;;10.35;98.67;101848.88;4971241;28;20280;-47
2022/07/24 02:04:49;;;;;;;5.10;3.10;;;;;;;10.42;98.54;101850.50;4970989;28;20290;-44
2022/07/24 02:07:14;;;;;;;3.80;3.40;;;;;;;10.28;98.23;101846.28;4971464;28;20170;-45
2022/07/24 02:09:40;;;;;;;3.70;3.30;;;;;;;10.29;97.83;101850.75;4971243;28;20276;-43
2022/07/24 02:12:06;;;;;;;3.83;3.40;;;;;;;10.28;97.84;101851.63;4971208;28;20174;-43
2022/07/24 02:14:31;;;;;;;4.80;3.20;;;;;;;10.22;98.02;101861.59;4971414;28;20166;-46
2022/07/24 02:16:57;;;;;;;4.15;3.40;;;;;;;10.27;97.63;101849.84;4970961;28;20174;-45
2022/07/24 02:19:24;;;;;;;3.28;2.97;;;;;;;10.28;97.53;101850.75;4970928;28;20304;-43
2022/07/24 02:21:50;;;;;;;3.50;3.20;;;;;;;10.24;97.43;101849.06;4970982;28;20162;-45
2022/07/24 02:24:15;;;;;;;3.33;3.03;;;;;;;10.23;97.47;101849.94;4970812;28;20194;-46
2022/07/24 02:26:41;;;;;;;3.30;2.83;;;;;;;10.29;97.67;101861.44;4971088;28;20189;-43
2022/07/24 02:29:06;;;;;;;3.80;3.05;;;;;;;10.35;97.53;101863.13;4971063;28;20169;-44
2022/07/24 02:31:32;;;;;;;4.18;3.00;;;;;;;10.31;97.23;101858.75;4971225;28;20188;-46
2022/07/24 02:33:57;;;;;;;3.42;3.13;;;;;;;10.30;97.46;101860.56;4970943;28;20549;-45
2022/07/24 02:36:23;;;;;;;3.53;3.20;;;;;;;10.13;96.91;101862.66;4970706;28;20170;-41
2022/07/24 02:38:48;;;;;;;4.70;3.13;;;;;;;10.19;97.13;101861.63;4970894;28;20214;-45
2022/07/24 02:41:14;;;;;;;4.05;3.33;;;;;;;10.21;97.31;101843.75;4970668;28;20182;-44
2022/07/24 02:43:40;;;;;;;3.72;3.33;;;;;;;10.27;97.23;101838.25;4970823;28;20424;-43
2022/07/24 02:46:05;;;;;;;3.40;3.10;;;;;;;9.99;96.71;101843.28;4970870;28;20174;-44
2022/07/24 02:48:31;;;;;;;3.58;3.28;;;;;;;9.86;97.21;101853.34;4970794;28;20177;-44
2022/07/24 02:50:56;;;;;;;3.55;3.05;;;;;;;9.86;97.81;101856.94;4970254;28;20206;-43
2022/07/24 02:53:22;;;;;;;5.07;3.00;;;;;;;9.85;98.38;101859.63;4952687;28;20663;-43
2022/07/24 02:55:48;;;;;;;4.15;3.40;;;;;;;9.85;98.75;101863.19;4962026;28;20209;-46
2022/07/24 02:58:13;;;;;;;4.13;3.72;;;;;;;10.04;99.48;101866.41;4937948;29;20225;-43
2022/07/24 03:00:39;;;;;;;4.70;3.75;;;;;;;9.98;99.28;101854.91;4954666;28;20187;-44
2022/07/24 03:03:04;;;;;;;4.15;3.30;;;;;;;10.02;99.23;101857.50;4955179;29;20674;-46
2022/07/24 03:05:30;;;;;;;4.32;3.40;;;;;;;10.07;99.15;101857.41;4954991;29;20179;-46
2022/07/24 03:07:55;;;;;;;6.82;4.18;;;;;;;10.13;99.60;101856.44;4954878;29;20854;-44
2022/07/24 03:10:21;;;;;;;6.57;4.05;;;;;;;10.14;99.42;101858.19;4954461;28;20266;-46
2022/07/24 03:12:46;;;;;;;4.55;3.20;;;;;;;10.19;99.40;101862.53;4954775;29;20194;-49
2022/07/24 03:15:13;;;;;;;6.65;3.97;;;;;;;10.15;99.23;101866.19;4954510;29;20826;-44
2022/07/24 03:17:39;;;;;;;4.45;3.58;;;;;;;10.14;99.18;101864.41;4954171;29;20171;-44
2022/07/24 03:20:05;;;;;;;3.97;3.60;;;;;;;10.05;99.43;101865.47;4954279;28;20199;-51
2022/07/24 03:22:31;;;;;;;4.03;3.47;;;;;;;10.12;99.61;101855.53;4954105;29;20197;-49
2022/07/24 03:24:56;;;;;;;6.82;3.58;;;;;;;10.12;99.56;101860.88;4953968;29;20194;-44
2022/07/24 03:27:22;;;;;;;3.55;3.20;;;;;;;10.21;99.66;101855.34;4954853;29;20221;-45
2022/07/24 03:29:47;;;;;;;5.30;3.30;;;;;;;10.15;99.33;101851.94;4953993;28;20633;-46
2022/07/24 03:32:13;;;;;;;4.25;3.88;;;;;;;10.20;99.79;101847.34;4954497;29;20190;-44
2022/07/24 03:34:38;;;;;;;4.85;3.55;;;;;;;10.14;99.68;101851.00;4946199;29;20281;-46
2022/07/24 03:37:04;;;;;;;8.60;3.53;;;;;;;10.15;99.67;101850.13;4957281;28;20182;-46
2022/07/24 03:39:30;;;;;;;4.90;3.63;;;;;;;10.11;99.79;101851.09;4973384;28;20206;-50
2022/07/24 03:41:55;;;;;;;4.72;3.38;;;;;;;10.17;100.00;101837.59;4971623;28;20198;-44
2022/07/24 03:44:21;;;;;;;3.80;3.50;;;;;;;10.16;100.00;101856.34;4953814;29;20226;-45
2022/07/24 03:46:46;;;;;;;3.72;3.20;;;;;;;10.25;100.00;101845.44;4962754;28;20174;-48
2022/07/24 03:49:11;;;;;;;3.42;3.15;;;;;;;10.28;99.74;101835.56;4973337;28;20201;-45
2022/07/24 03:51:37;;;;;;;3.42;3.17;;;;;;;10.30;99.79;101839.13;4973122;28;20523;-44
2022/07/24 03:54:03;;;;;;;3.85;3.40;;;;;;;10.34;99.47;101844.41;4972821;28;20167;-47
2022/07/24 03:56:29;;;;;;;3.70;3.22;;;;;;;10.36;99.39;101851.50;4973486;28;20220;-50
2022/07/24 03:58:54;;;;;;;6.50;3.70;;;;;;;10.44;99.55;101854.03;4973136;28;20221;-48
2022/07/24 04:01:21;;;;;;;3.17;2.90;;;;;;;10.46;99.33;101849.50;4964648;28;20755;-44
2022/07/24 04:03:47;;;;;;;5.55;3.78;;;;;;;10.29;99.30;101863.25;4972924;28;20261;-47
2022/07/24 04:06:12;;;;;;;3.25;2.95;;;;;;;10.23;99.77;101863.34;4971618;28;20229;-52
2022/07/24 04:08:38;;;;;;;4.95;3.38;;;;;;;10.36;100.00;101864.88;4972987;28;20170;-44
2022/07/24 04:11:03;;;;;;;5.95;3.70;;;;;;;10.33;100.00;101858.72;4973059;28;20206;-46
2022/07/24 04:13:30;;;;;;;4.13;3.80;;;;;;;10.45;100.00;101848.63;4972532;28;20194;-50
2022/07/24 04:15:57;;;;;;;5.80;3.97;;;;;;;10.38;100.00;101846.09;4972595;28;20280;-45
2022/07/24 04:18:23;;;;;;;4.85;4.10;;;;;;;10.50;100.00;101852.09;4972833;28;20170;-45
2022/07/24 04:20:49;;;;;;;6.57;3.85;;;;;;;10.43;100.00;101850.47;4972681;28;20186;-45
2022/07/24 04:23:15;;;;;;;4.93;3.78;;;;;;;10.64;100.00;101834.81;4965265;28;20690;-46
2022/07/24 04:25:41;;;;;;;10.50;4.50;;;;;;;10.83;100.00;101836.19;4953163;29;20345;-45
2022/07/24 04:28:06;;;;;;;5.18;4.50;;;;;;;10.96;100.00;101823.38;4953578;29;20291;-45
2022/07/24 04:30:32;;;;;;;6.03;4.88;;;;;;;11.07;100.00;101818.63;4953601;28;20663;-50
2022/07/24 04:32:57;;;;;;;4.28;3.75;;;;;;;11.18;100.00;101820.16;4953110;28;20191;-46
2022/07/24 04:35:23;;;;;;;5.88;3.85;;;;;;;11.30;100.00;101804.66;4953428;29;20933;-45
2022/07/24 04:37:49;;;;;;;6.38;3.80;;;;;;;11.39;100.00;101824.09;4953690;29;20178;-46
2022/07/24 04:40:14;;;;;;;4.68;3.58;;;;;;;11.48;100.00;101822.06;4953506;28;20286;-47
2022/07/24 04:42:40;;;;;;;3.83;3.42;;;;;;;11.58;100.00;101828.06;4953529;29;20231;-45
2022/07/24 04:45:08;;;;;;;5.28;3.60;;;;;;;11.66;100.00;101831.44;4953026;29;20875;-44
2022/07/24 04:47:34;;;;;;;5.43;4.03;;;;;;;11.66;100.00;101825.19;4953291;29;20175;-46
2022/07/24 04:49:59;;;;;;;4.80;3.20;;;;;;;11.80;100.00;101825.69;4952816;28;20947;-46
2022/07/24 04:52:25;;;;;;;5.22;3.70;;;;;;;11.89;100.00;101825.44;4952954;29;20246;-46
2022/07/24 04:54:50;;;;;;;4.65;3.13;;;;;;;12.00;100.00;101817.09;4953202;29;20174;-47
2022/07/24 04:57:16;;;;;;;5.03;3.20;;;;;;;12.10;100.00;101820.41;4953079;29;20167;-44
2022/07/24 04:59:42;;;;;;;3.92;3.55;;;;;;;12.21;100.00;101815.63;4952749;28;20669;-46
2022/07/24 05:02:07;;;;;;;4.53;3.10;;;;;;;12.35;100.00;101820.56;4953160;29;20211;-46
2022/07/24 05:04:34;;;;;;;7.13;3.25;;;;;;;12.49;100.00;101818.38;4952478;29;20210;-49
2022/07/24 05:07:01;;;;;;;3.55;3.00;;;;;;;12.61;100.00;101818.91;4953079;29;20627;-46
2022/07/24 05:09:27;;;;;;;4.13;2.83;;;;;;;12.82;99.36;101820.94;4952614;28;20606;-47
2022/07/24 05:11:52;;;;;;;3.25;2.47;;;;;;;12.90;98.45;101813.50;4952943;29;20174;-45
2022/07/24 05:14:18;;;;;;;6.57;3.13;;;;;;;12.95;97.87;101826.81;4952932;29;20175;-46
2022/07/24 05:16:44;;;;;;;5.72;2.88;;;;;;;13.10;97.72;101818.22;4952599;29;20174;-48
2022/07/24 05:19:09;;;;;;;3.38;2.50;;;;;;;13.16;96.68;101822.50;4952291;28;20177;-45
2022/07/24 05:21:35;;;;;;;3.53;2.30;;;;;;;13.27;96.59;101823.06;4952725;29;20178;-45
2022/07/24 05:24:01;;;;;;;2.88;2.60;;;;;;;13.33;96.61;101827.38;4952319;29;20189;-47
2022/07/24 05:26:28;;;;;;;4.85;2.50;;;;;;;13.45;95.89;101810.81;4952570;29;20179;-44
2022/07/24 05:28:54;;;;;;;4.78;2.38;;;;;;;13.58;94.97;101811.28;4952502;29;20269;-52
2022/07/24 05:31:19;;;;;;;3.40;2.20;;;;;;;13.64;93.94;101810.16;4952430;28;20670;-44
2022/07/24 05:33:45;;;;;;;3.90;2.28;;;;;;;13.82;94.02;101801.44;4952145;29;20179;-47
2022/07/24 05:36:11;;;;;;;3.88;2.20;;;;;;;13.89;93.34;101799.41;4952295;29;20186;-45
2022/07/24 05:38:36;;;;;;;4.53;1.90;;;;;;;13.97;92.80;101805.38;4952747;29;20167;-49
2022/07/24 05:41:02;;;;;;;4.40;2.20;;;;;;;14.20;92.70;101796.44;4951996;28;20200;-46
2022/07/24 05:43:27;;;;;;;4.13;2.20;;;;;;;14.42;91.80;101812.66;4952566;29;20167;-46
2022/07/24 05:45:53;;;;;;;3.30;1.60;;;;;;;14.49;90.62;101818.69;4952276;29;20193;-48
2022/07/24 05:48:18;;;;;;;4.90;2.08;;;;;;;14.55;89.66;101813.09;4952435;29;20226;-45
2022/07/24 05:50:44;;;;;;;3.40;1.70;;;;;;;14.71;88.62;101805.28;4935472;29;20291;-44
2022/07/24 05:53:09;;;;;;;3.72;1.50;;;;;;;14.84;88.05;101810.09;4951904;29;20229;-45
2022/07/24 05:55:35;;;;;;;3.38;1.83;;;;;;;14.99;87.62;101807.75;4952502;29;20266;-44
2022/07/24 05:58:01;;;;;;;4.25;1.40;;;;;;;15.20;86.67;101804.16;4952011;29;20186;-44
2022/07/24 06:00:27;;;;;;;1.77;1.30;;;;;;;15.34;85.91;101814.38;4952450;28;20243;-47
2022/07/24 06:02:52;;;;;;;4.00;1.45;;;;;;;15.38;84.60;101807.88;4951729;29;20174;-46
2022/07/24 06:05:18;;;;;;;4.28;1.40;;;;;;;15.55;83.88;101809.88;4952071;29;20183;-47
2022/07/24 06:07:44;;;;;;;3.17;1.40;;;;;;;15.78;82.61;101800.78;4934867;29;20312;-49
2022/07/24 06:10:09;;;;;;;2.58;1.20;;;;;;;16.00;82.35;101800.69;4952022;28;20641;-45
2022/07/24 06:12:35;;;;;;;7.20;2.03;;;;;;;16.02;80.74;101797.91;4935115;29;20250;-45
2022/07/24 06:15:01;;;;;;;4.78;1.73;;;;;;;16.26;80.58;101794.06;4934882;29;20253;-47
2022/07/24 06:17:26;;;;;;;2.45;1.30;;;;;;;16.54;78.71;101781.97;4951666;29;20330;-47
2022/07/24 06:19:51;;;;;;;2.30;1.30;;;;;;;16.79;77.41;101778.06;4952088;28;20190;-45
2022/07/24 06:22:17;;;;;;;2.97;1.10;;;;;;;17.09;76.95;101778.41;4951803;29;20167;-45
2022/07/24 06:24:42;;;;;;;2.35;1.23;;;;;;;17.19;76.51;101782.41;4951894;29;20192;-48
2022/07/24 06:27:08;;;;;;;4.40;1.48;;;;;;;17.23;75.64;101777.69;4951754;29;20171;-44
2022/07/24 06:29:33;;;;;;;4.00;1.30;;;;;;;17.22;75.17;101768.69;4952404;28;20214;-45
2022/07/24 06:31:59;;;;;;;2.28;1.10;;;;;;;17.27;75.08;101766.66;4955889;28;20636;-46
2022/07/24 06:34:25;;;;;;;4.30;1.40;;;;;;;17.55;75.00;101773.31;4955598;29;20238;-45
2022/07/24 06:36:51;;;;;;;3.33;1.23;;;;;;;17.38;74.46;101770.63;4955912;29;20175;-47
2022/07/24 06:39:17;;;;;;;1.70;0.95;;;;;;;17.66;72.96;101770.03;4940631;28;20201;-45
2022/07/24 06:41:43;;;;;;;6.00;1.52;;;;;;;17.80;71.87;101766.59;4975001;28;20188;-48
2022/07/24 06:44:23;;;;;;;2.80;1.30;;;;;;;17.92;70.61;101758.72;4956902;28;20170;-45
2022/07/24 06:46:49;;;;;;;2.72;0.93;;;;;;;18.11;69.57;101771.28;4957349;28;20799;-44
2022/07/24 06:49:14;;;;;;;3.15;1.20;;;;;;;18.13;69.82;101758.53;4963791;28;20192;-45
2022/07/24 06:51:40;;;;;;;3.63;1.27;;;;;;;18.14;69.88;101770.22;4955358;29;20179;-45
2022/07/24 06:54:05;;;;;;;5.15;1.60;;;;;;;18.38;70.31;101760.72;4955536;29;20167;-48
2022/07/24 06:56:31;;;;;;;3.83;1.10;;;;;;;17.86;69.25;101764.50;4955644;29;20183;-45
2022/07/24 06:58:58;;;;;;;2.97;1.40;;;;;;;18.28;70.12;101764.94;4955240;29;20167;-45
2022/07/24 07:01:25;;;;;;;3.92;1.38;;;;;;;18.48;68.88;101755.66;4955356;28;20306;-44
2022/07/24 07:03:54;;;;;;;1.48;1.02;;;;;;;18.57;67.82;101757.84;4955087;29;20163;-45
2022/07/24 07:06:21;;;;;;;2.05;1.10;;;;;;;18.53;68.17;101768.00;4955196;29;20665;-49
2022/07/24 07:08:47;;;;;;;2.95;1.08;;;;;;;18.96;67.33;101759.25;4955044;29;20627;-48
2022/07/24 07:11:12;;;;;;;1.70;1.08;;;;;;;18.86;65.56;101761.63;4937894;29;20214;-50
2022/07/24 07:13:37;;;;;;;3.55;1.20;;;;;;;18.96;66.14;101763.78;4955134;29;20238;-42
2022/07/24 07:16:03;;;;;;;4.20;1.30;;;;;;;18.79;67.50;101770.22;4954860;29;20237;-48
2022/07/24 07:18:29;;;;;;;4.80;1.20;;;;;;;18.60;68.33;101760.38;4954984;29;20171;-45
2022/07/24 07:20:55;;;;;;;2.25;1.20;;;;;;;18.49;69.14;101754.69;4954896;28;20573;-48
2022/07/24 07:23:26;;;;;;;3.20;1.45;;;;;;;18.57;68.09;101751.56;4954117;29;20565;-50
2022/07/24 07:25:53;;;;;;;2.78;1.20;;;;;;;18.80;69.09;101759.25;4937815;29;20270;-48
2022/07/24 07:28:19;;;;;;;1.40;1.30;;;;;;;19.27;67.69;101755.59;4954478;29;20167;-48
2022/07/24 07:30:45;;;;;;;2.72;1.45;;;;;;;18.97;67.64;101755.56;4937502;29;20297;-51
2022/07/24 07:33:11;;;;;;;1.42;1.33;;;;;;;19.03;68.01;101765.22;4954763;29;20179;-44
2022/07/24 07:35:36;;;;;;;1.20;1.10;;;;;;;19.10;68.35;101769.31;4952714;29;20182;-48
2022/07/24 07:38:02;;;;;;;4.18;1.35;;;;;;;19.07;67.12;101758.63;4953486;29;20677;-44
2022/07/24 07:40:28;;;;;;;4.88;1.33;;;;;;;18.99;68.30;101756.34;4954097;28;20207;-46
2022/07/24 07:42:53;;;;;;;3.05;1.45;;;;;;;18.79;68.97;101751.22;4937376;29;20211;-46
2022/07/24 07:45:19;;;;;;;3.13;1.50;;;;;;;19.07;69.69;101751.34;4937581;29;20747;-46
2022/07/24 07:47:45;;;;;;;2.42;1.50;;;;;;;19.20;68.29;101743.34;4954227;29;20171;-46
2022/07/24 07:50:11;;;;;;;3.08;1.30;;;;;;;18.93;69.05;101743.13;4953829;28;20444;-44
2022/07/24 07:52:37;;;;;;;2.33;1.45;;;;;;;19.56;68.80;101748.38;4937030;29;20182;-48
2022/07/24 07:55:04;;;;;;;1.83;1.30;;;;;;;19.33;68.02;101747.06;4953860;28;20186;-45
2022/07/24 07:57:29;;;;;;;3.08;1.40;;;;;;;19.99;66.75;101742.16;4954330;29;20266;-44
2022/07/24 07:59:54;;;;;;;2.65;1.38;;;;;;;19.96;65.93;101736.88;4953896;28;20289;-46
2022/07/24 08:02:20;;;;;;;2.80;1.40;;;;;;;20.31;66.23;101722.88;4954301;29;20201;-51
2022/07/24 08:04:45;;;;;;;2.00;1.40;;;;;;;20.66;65.80;101725.16;4954152;29;20183;-44
2022/07/24 08:07:11;;;;;;;4.65;1.60;;;;;;;20.82;63.54;101728.63;4954218;29;20163;-46
2022/07/24 08:09:37;;;;;;;2.75;1.25;;;;;;;20.99;64.49;101730.22;4954053;28;20210;-50
2022/07/24 08:12:04;;;;;;;2.15;1.48;;;;;;;21.24;63.91;101723.94;4953776;29;20544;-50
2022/07/24 08:14:29;;;;;;;4.15;1.60;;;;;;;21.51;62.88;101731.19;4953812;29;20186;-49
2022/07/24 08:16:55;;;;;;;3.28;1.80;;;;;;;21.16;62.46;101727.16;4953866;29;20175;-48
2022/07/24 08:19:21;;;;;;;2.38;1.50;;;;;;;21.06;63.81;101720.63;4953879;28;20265;-51
2022/07/24 08:21:46;;;;;;;1.80;1.50;;;;;;;21.06;62.26;101731.53;4936765;29;20273;-46
2022/07/24 08:24:12;;;;;;;1.55;1.45;;;;;;;21.42;63.14;101730.00;4936280;29;20226;-46
2022/07/24 08:26:38;;;;;;;2.55;1.50;;;;;;;21.59;62.08;101728.81;4953811;29;20269;-48
2022/07/24 08:29:03;;;;;;;1.90;1.63;;;;;;;21.69;61.79;101719.00;4953701;29;20190;-50
2022/07/24 08:31:29;;;;;;;3.17;2.05;;;;;;;21.32;61.98;101716.09;4953575;28;20205;-43
2022/07/24 08:33:55;;;;;;;3.35;1.83;;;;;;;21.22;62.66;101723.16;4953638;29;20174;-45
2022/07/24 08:36:20;;;;;;;4.05;1.90;;;;;;;21.93;62.52;101723.66;4953535;29;20241;-49
2022/07/24 08:38:46;;;;;;;2.92;1.90;;;;;;;22.04;61.21;101707.41;4953622;29;20171;-47
2022/07/24 08:41:12;;;;;;;1.55;1.45;;;;;;;22.26;60.82;101714.94;4952814;28;20206;-49
2022/07/24 08:43:38;;;;;;;2.08;1.70;;;;;;;22.24;60.92;101708.72;4952643;29;20660;-48
2022/07/24 08:46:09;;;;;;;2.70;1.38;;;;;;;22.50;59.91;101709.50;4953006;29;20354;-48
2022/07/24 08:48:36;;;;;;;3.05;1.90;;;;;;;22.65;59.49;101712.94;4953035;29;20177;-48
2022/07/24 08:51:02;;;;;;;2.00;1.30;;;;;;;22.93;60.17;101716.31;4952975;28;20221;-48
2022/07/24 08:53:27;;;;;;;3.70;1.75;;;;;;;22.94;59.26;101716.19;4951532;28;20190;-50
2022/07/24 08:55:53;;;;;;;3.80;1.60;;;;;;;22.55;58.33;101707.31;4953092;29;20645;-48
2022/07/24 08:58:18;;;;;;;2.97;1.90;;;;;;;22.45;58.94;101708.97;4952615;29;20258;-47
2022/07/24 09:00:44;;;;;;;2.25;1.70;;;;;;;22.75;58.42;101702.19;4953084;28;20197;-46
2022/07/24 09:03:10;;;;;;;3.10;1.95;;;;;;;22.29;59.56;101703.78;4952538;29;20182;-47
2022/07/24 09:05:55;;;;;;;2.92;1.70;;;;;;;22.80;58.85;101714.50;4952189;29;20261;-46
2022/07/24 09:08:21;;;;;;;2.00;1.65;;;;;;;22.73;57.91;101701.44;4952867;29;20189;-48
2022/07/24 09:11:03;;;;;;;2.17;1.50;;;;;;;23.26;57.20;101710.13;4952535;28;20205;-46
2022/07/24 09:14:29;;;;;;;4.35;1.55;;;;;;;23.08;57.42;101697.91;4952677;28;20386;-47
2022/07/24 09:16:23;;;;;;;2.63;1.70;;;;;;;22.90;56.75;101690.09;4951734;28;20186;-48
2022/07/24 09:19:10;;;;;;;1.92;1.58;;;;;;;23.28;56.85;101682.69;4952730;29;20186;-48
2022/07/24 09:21:38;;;;;;;3.22;1.55;;;;;;;23.34;55.86;101694.00;4951689;29;20686;-47
2022/07/24 09:24:18;;;;;;;1.92;1.33;;;;;;;24.03;55.82;101679.41;4951458;29;20672;-46
2022/07/24 09:26:58;;;;;;;2.05;1.60;;;;;;;24.31;54.14;101680.75;4951717;29;20286;-46
2022/07/24 09:29:25;;;;;;;2.78;1.60;;;;;;;23.78;54.16;101673.19;4949406;28;20217;-46
2022/07/24 09:31:53;;;;;;;2.42;1.65;;;;;;;24.05;54.87;101661.00;4951610;29;20181;-48
2022/07/24 09:34:18;;;;;;;1.40;1.30;;;;;;;24.65;54.00;101656.03;4949680;29;20173;-45
2022/07/24 09:37:01;;;;;;;2.05;1.50;;;;;;;24.63;53.68;101650.69;4950764;29;20170;-48
2022/07/24 09:39:29;;;;;;;2.30;1.60;;;;;;;24.31;54.28;101653.34;4951938;28;20224;-46
2022/07/24 09:41:56;;;;;;;3.95;1.60;;;;;;;24.54;53.32;101667.03;4952081;29;20240;-46
2022/07/24 09:44:25;;;;;;;2.30;1.50;;;;;;;24.39;52.74;101660.94;4951585;29;20201;-47
2022/07/24 09:46:56;;;;;;;3.28;1.55;;;;;;;24.76;53.44;101656.00;4951828;29;20182;-47
2022/07/24 09:49:22;;;;;;;2.03;1.55;;;;;;;24.79;53.58;101649.38;4952066;28;20186;-47
2022/07/24 09:52:32;;;;;;;1.75;1.65;;;;;;;24.77;51.70;101652.22;4933438;29;20284;-47
2022/07/24 09:54:58;;;;;;;3.78;1.50;;;;;;;24.98;51.91;101659.63;4872564;29;20185;-47
2022/07/24 09:57:23;;;;;;;2.65;1.70;;;;;;;24.14;52.73;101654.78;4938462;28;20242;-50
2022/07/24 09:59:54;;;;;;;3.53;1.77;;;;;;;24.63;53.48;101644.34;4951648;28;20194;-48
2022/07/24 10:02:24;;;;;;;3.03;1.73;;;;;;;24.46;52.52;101635.63;4934746;29;20698;-48
2022/07/24 10:04:51;;;;;;;2.53;1.60;;;;;;;25.21;53.08;101646.69;4951150;28;20178;-51
2022/07/24 10:07:19;;;;;;;1.63;1.52;;;;;;;24.67;52.83;101641.22;4934748;29;20182;-48
2022/07/24 10:09:47;;;;;;;2.65;1.77;;;;;;;24.43;53.99;101637.78;4951774;29;20755;-49
2022/07/24 10:12:18;;;;;;;2.20;1.77;;;;;;;24.63;53.73;101636.97;4951562;29;20182;-48
2022/07/24 10:14:45;;;;;;;6.68;1.92;;;;;;;24.57;54.34;101642.97;4949050;28;20186;-48
2022/07/24 10:17:12;;;;;;;2.67;1.88;;;;;;;25.18;53.29;101638.72;4950942;29;20178;-48
2022/07/24 10:19:49;;;;;;;4.30;2.22;;;;;;;25.42;51.88;101635.72;4948476;28;20194;-49
2022/07/24 10:22:21;;;;;;;2.45;1.90;;;;;;;25.07;53.18;101636.91;4948018;29;20650;-49
2022/07/24 10:25:08;;;;;;;1.85;1.75;;;;;;;25.06;54.22;101636.03;4950162;29;20199;-48
2022/07/24 10:27:36;;;;;;;3.17;2.17;;;;;;;24.73;53.20;101633.44;4951652;29;20648;-49
2022/07/24 10:30:10;;;;;;;4.75;2.45;;;;;;;24.62;53.79;101640.75;4951179;29;20294;-47
2022/07/24 10:32:37;;;;;;;4.35;2.17;;;;;;;24.89;53.59;101628.41;4952029;29;20214;-48
2022/07/24 10:35:13;;;;;;;3.63;1.95;;;;;;;24.64;54.32;101630.53;4951116;29;20186;-49
2022/07/24 10:37:54;;;;;;;2.65;2.45;;;;;;;24.46;54.60;101626.56;4951616;28;20214;-51
2022/07/24 10:40:46;;;;;;;2.80;2.05;;;;;;;24.86;54.22;101620.44;4966512;28;20201;-48
2022/07/24 10:43:14;;;;;;;3.00;2.20;;;;;;;25.03;54.68;101624.44;4950933;29;20178;-50
2022/07/24 10:45:43;;;;;;;2.10;1.90;;;;;;;25.05;53.67;101615.09;4943891;29;20178;-48
2022/07/24 10:48:21;;;;;;;2.42;2.13;;;;;;;25.24;53.58;101613.53;4951149;29;20182;-48
2022/07/24 10:50:59;;;;;;;3.95;2.55;;;;;;;25.17;53.23;101613.16;4951680;29;20212;-49
2022/07/24 10:53:28;;;;;;;2.38;2.17;;;;;;;24.92;54.29;101611.69;4950739;29;20174;-50
2022/07/24 10:56:16;;;;;;;2.78;2.20;;;;;;;25.25;52.94;101607.91;4951470;29;20179;-49
2022/07/24 10:58:57;;;;;;;4.07;2.38;;;;;;;25.83;52.53;101592.72;4951156;29;20186;-50
2022/07/24 11:01:42;;;;;;;3.75;2.75;;;;;;;25.42;52.97;101611.03;4951479;29;20602;-48
2022/07/24 11:04:23;;;;;;;6.57;3.10;;;;;;;25.55;51.77;101591.59;4950799;29;20193;-49
2022/07/24 11:06:49;;;;;;;4.38;3.17;;;;;;;25.32;51.53;101577.16;4951270;29;20178;-48
2022/07/24 11:09:24;;;;;;;4.85;2.90;;;;;;;25.28;53.23;101587.56;4951140;29;20518;-48
2022/07/24 11:11:52;;;;;;;5.05;3.22;;;;;;;25.55;51.60;101580.63;4951212;29;20684;-48
2022/07/24 11:14:38;;;;;;;7.20;3.20;;;;;;;25.88;51.98;101573.97;4933692;29;20214;-49
2022/07/24 11:17:39;;;;;;;6.47;2.90;;;;;;;26.00;50.54;101572.84;4936659;29;20627;-48
2022/07/24 11:20:10;;;;;;;4.03;3.55;;;;;;;25.87;50.68;101567.56;4955028;29;20602;-48
2022/07/24 11:22:42;;;;;;;3.53;3.22;;;;;;;25.51;51.20;101559.94;4954579;29;20162;-48
2022/07/24 11:25:12;;;;;;;4.53;2.90;;;;;;;25.81;52.46;101548.91;4953851;29;20186;-47